Time;durP1;ratioP1;P1;durP2;ratioP2;P2;SDS_P1;SDS_P2;PMS_P1;PMS_P2;Temp;Humidity;BMP_temperature;BMP_pressure;BME280_temperature;BME280_humidity;BME280_pressure;Samples;Min_cycle;Max_cycle;Signal;HPM_P1;HPM_P2
2023/06/07 00:00:59;;;;;;;6.22;3.15;;;;;;;21.69;nan;101711.38;5044600;28;20025;-39
2023/06/07 00:03:25;;;;;;;8.57;3.30;;;;;;;21.68;nan;101712.38;5034273;28;20025;-39
2023/06/07 00:05:51;;;;;;;5.93;3.35;;;;;;;21.61;nan;101713.91;5065901;28;20028;-39
2023/06/07 00:08:18;;;;;;;5.95;3.67;;;;;;;21.58;nan;101706.13;5053445;28;20020;-39
2023/06/07 00:10:43;;;;;;;5.88;3.10;;;;;;;21.54;nan;101704.69;5054661;28;20032;-39
2023/06/07 00:13:09;;;;;;;13.05;3.47;;;;;;;21.53;nan;101706.53;5073109;28;20040;-39
2023/06/07 00:15:35;;;;;;;10.13;3.83;;;;;;;21.49;nan;101702.44;5055052;28;20040;-39
2023/06/07 00:18:01;;;;;;;6.20;3.28;;;;;;;21.45;nan;101703.69;5036028;28;20025;-39
2023/06/07 00:20:28;;;;;;;10.52;3.78;;;;;;;21.39;nan;101698.88;5069403;28;20073;-39
2023/06/07 00:22:55;;;;;;;7.60;3.50;;;;;;;21.36;nan;101707.19;5068192;28;20099;-40
2023/06/07 00:25:21;;;;;;;7.18;3.03;;;;;;;21.31;nan;101705.75;5037077;28;20055;-39
2023/06/07 00:27:47;;;;;;;7.72;3.60;;;;;;;21.28;nan;101699.84;5035879;28;20603;-39
2023/06/07 00:30:13;;;;;;;6.38;3.33;;;;;;;21.29;nan;101714.91;5052430;28;20089;-39
2023/06/07 00:32:38;;;;;;;7.35;3.47;;;;;;;21.28;nan;101710.53;5049082;28;20047;-41
2023/06/07 00:35:07;;;;;;;7.97;4.20;;;;;;;21.26;nan;101707.97;5048532;28;20035;-41
2023/06/07 00:37:33;;;;;;;7.90;4.55;;;;;;;21.14;nan;101712.59;5056518;28;20038;-39
2023/06/07 00:39:58;;;;;;;9.50;4.82;;;;;;;21.07;nan;101703.41;5052647;28;20028;-39
2023/06/07 00:42:24;;;;;;;8.68;3.83;;;;;;;20.99;nan;101705.91;5056341;28;20077;-39
2023/06/07 00:44:50;;;;;;;5.40;3.30;;;;;;;20.95;nan;101710.66;5054811;28;20036;-40
2023/06/07 00:47:16;;;;;;;5.78;3.72;;;;;;;20.97;nan;101714.06;5068119;28;20064;-40
2023/06/07 00:49:43;;;;;;;8.55;3.88;;;;;;;20.96;nan;101709.69;5054900;28;20036;-39
2023/06/07 00:52:10;;;;;;;8.57;4.60;;;;;;;20.86;nan;101703.47;5052215;28;20054;-40
2023/06/07 00:54:35;;;;;;;10.20;3.92;;;;;;;20.79;nan;101710.31;5068554;28;20034;-39
2023/06/07 00:57:02;;;;;;;9.80;4.57;;;;;;;20.79;nan;101708.50;5028736;28;20043;-41
2023/06/07 00:59:27;;;;;;;8.10;3.38;;;;;;;20.78;nan;101704.13;5051292;28;20032;-40
2023/06/07 01:01:55;;;;;;;5.70;3.10;;;;;;;20.75;nan;101711.53;5054838;28;20433;-39
2023/06/07 01:04:22;;;;;;;5.70;3.08;;;;;;;20.71;nan;101706.44;5051617;28;20042;-39
2023/06/07 01:06:48;;;;;;;8.52;3.33;;;;;;;20.78;nan;101708.63;5071895;28;20498;-39
2023/06/07 01:09:16;;;;;;;7.32;3.15;;;;;;;20.81;nan;101703.84;5055586;28;20066;-39
2023/06/07 01:11:46;;;;;;;8.93;3.25;;;;;;;20.75;nan;101700.84;5068296;28;20024;-39
2023/06/07 01:14:13;;;;;;;7.80;3.17;;;;;;;20.72;nan;101699.28;5046719;28;20029;-39
2023/06/07 01:16:40;;;;;;;5.93;3.13;;;;;;;20.70;nan;101702.06;5070977;28;20028;-39
2023/06/07 01:19:06;;;;;;;11.13;3.80;;;;;;;20.73;nan;101706.28;5066487;28;20043;-39
2023/06/07 01:21:37;;;;;;;10.57;3.65;;;;;;;20.73;nan;101695.59;5055845;28;20036;-39
2023/06/07 01:24:03;;;;;;;8.73;3.90;;;;;;;20.66;nan;101692.59;5069444;28;20048;-39
2023/06/07 01:26:29;;;;;;;8.88;3.50;;;;;;;20.68;nan;101698.69;5038131;28;20115;-39
2023/06/07 01:29:05;;;;;;;9.73;3.65;;;;;;;20.62;nan;101693.00;5068029;28;20422;-39
2023/06/07 01:31:35;;;;;;;7.70;2.97;;;;;;;20.51;nan;101691.25;5066131;28;20719;-39
2023/06/07 01:34:02;;;;;;;5.97;3.10;;;;;;;20.50;nan;101700.25;5083299;28;20642;-39
2023/06/07 01:36:31;;;;;;;4.78;3.10;;;;;;;20.47;nan;101692.50;5054558;28;20115;-39
2023/06/07 01:38:59;;;;;;;5.72;3.45;;;;;;;20.54;nan;101691.00;5051397;28;20440;-40
2023/06/07 01:41:27;;;;;;;9.30;3.40;;;;;;;20.55;nan;101692.69;5072204;28;20024;-39
2023/06/07 01:43:53;;;;;;;7.35;3.38;;;;;;;20.56;nan;101691.72;5068000;28;20131;-39
2023/06/07 01:46:19;;;;;;;10.73;3.60;;;;;;;20.57;nan;101690.75;5055272;28;20116;-38
2023/06/07 01:48:45;;;;;;;10.45;4.20;;;;;;;20.54;nan;101688.31;5052261;28;20060;-38
2023/06/07 01:51:11;;;;;;;12.23;4.10;;;;;;;20.48;nan;101679.00;5074889;28;20067;-38
2023/06/07 01:53:37;;;;;;;8.02;4.25;;;;;;;20.36;nan;101680.88;5055927;28;20031;-38
2023/06/07 01:56:17;;;;;;;7.88;3.45;;;;;;;20.34;nan;101673.97;5048161;28;20040;-38
2023/06/07 01:59:03;;;;;;;8.52;3.97;;;;;;;20.37;nan;101685.25;5064438;28;20064;-38
2023/06/07 02:01:50;;;;;;;8.32;3.95;;;;;;;20.36;nan;101683.56;5060766;28;20030;-38
2023/06/07 02:04:20;;;;;;;8.55;4.45;;;;;;;20.22;nan;101687.41;5071337;28;20028;-38
2023/06/07 02:06:50;;;;;;;6.32;3.75;;;;;;;20.23;nan;101685.56;5055663;28;20023;-38
2023/06/07 02:09:18;;;;;;;13.68;3.78;;;;;;;20.13;nan;101682.81;5049714;28;20039;-38
2023/06/07 02:11:46;;;;;;;9.77;5.45;;;;;;;20.01;nan;101684.72;5081046;28;20052;-38
2023/06/07 02:14:12;;;;;;;6.28;3.95;;;;;;;19.98;nan;101676.94;5045926;28;20032;-38
2023/06/07 02:16:38;;;;;;;9.60;4.15;;;;;;;20.02;nan;101681.06;5065268;28;20031;-38
2023/06/07 02:19:06;;;;;;;10.73;4.75;;;;;;;20.13;nan;101676.66;5062791;28;20118;-38
2023/06/07 02:21:36;;;;;;;8.90;4.93;;;;;;;20.21;nan;101679.50;5068944;28;20027;-38
2023/06/07 02:24:08;;;;;;;7.25;4.22;;;;;;;20.29;nan;101682.41;5052620;28;20069;-38
2023/06/07 02:26:33;;;;;;;;;;;;;;;20.20;nan;101680.47;5052012;28;20485;-37
2023/06/07 02:28:59;;;;;;;12.57;4.63;;;;;;;20.13;nan;101682.81;5065774;28;19926;-38
2023/06/07 02:31:25;;;;;;;9.80;5.20;;;;;;;20.10;nan;101688.44;5052867;28;20752;-38
2023/06/07 02:33:52;;;;;;;10.23;4.57;;;;;;;20.03;nan;101685.44;5066389;28;20019;-38
2023/06/07 02:36:25;;;;;;;10.85;4.78;;;;;;;19.99;nan;101685.78;5062824;28;20043;-38
2023/06/07 02:38:51;;;;;;;14.45;4.90;;;;;;;19.89;nan;101680.41;5063733;28;20563;-38
2023/06/07 02:41:17;;;;;;;8.55;4.60;;;;;;;19.85;nan;101678.91;5066317;28;20023;-38
2023/06/07 02:43:43;;;;;;;12.73;4.88;;;;;;;19.90;nan;101682.94;5051208;28;20027;-38
2023/06/07 02:46:11;;;;;;;7.45;4.88;;;;;;;19.92;nan;101689.00;5046936;28;20040;-38
2023/06/07 02:48:37;;;;;;;11.60;5.53;;;;;;;19.90;nan;101682.06;5066946;28;20024;-38
2023/06/07 02:51:03;;;;;;;11.20;5.35;;;;;;;19.87;nan;101682.34;5048059;28;20409;-38
2023/06/07 02:53:28;;;;;;;11.80;4.95;;;;;;;19.79;nan;101681.09;5050299;28;20487;-38
2023/06/07 02:55:54;;;;;;;8.98;4.95;;;;;;;19.83;nan;101686.19;5046862;28;20035;-38
2023/06/07 02:58:19;;;;;;;10.60;4.97;;;;;;;19.78;nan;101678.56;5064694;28;20108;-38
2023/06/07 03:00:46;;;;;;;7.57;4.93;;;;;;;19.82;nan;101677.31;5069862;28;20036;-38
2023/06/07 03:03:12;;;;;;;12.10;5.68;;;;;;;19.78;nan;101682.06;5049689;28;20044;-38
2023/06/07 03:05:40;;;;;;;10.80;5.18;;;;;;;19.70;nan;101681.88;5051047;28;20035;-38
2023/06/07 03:08:10;;;;;;;14.43;6.00;;;;;;;19.75;nan;101685.00;5058952;28;20084;-38
2023/06/07 03:10:35;;;;;;;11.80;4.95;;;;;;;19.72;nan;101679.94;5050035;28;20040;-38
2023/06/07 03:13:02;;;;;;;9.77;4.75;;;;;;;19.73;nan;101681.63;5048732;28;20577;-38
2023/06/07 03:15:28;;;;;;;13.07;5.72;;;;;;;19.56;nan;101684.81;5048265;28;20024;-38
2023/06/07 03:17:53;;;;;;;8.43;5.03;;;;;;;19.34;nan;101686.53;5055745;28;20426;-38
2023/06/07 03:20:21;;;;;;;11.73;5.85;;;;;;;19.36;nan;101684.59;5050442;28;20054;-38
2023/06/07 03:22:47;;;;;;;12.43;6.40;;;;;;;19.29;nan;101683.38;5022929;28;20155;-38
2023/06/07 03:25:14;;;;;;;9.57;4.65;;;;;;;19.36;nan;101684.59;5059428;28;20036;-40
2023/06/07 03:27:40;;;;;;;9.98;5.30;;;;;;;19.40;nan;101690.53;5066975;28;20032;-38
2023/06/07 03:30:06;;;;;;;7.38;5.13;;;;;;;19.38;nan;101693.34;5055046;28;20454;-38
2023/06/07 03:32:32;;;;;;;9.07;4.57;;;;;;;19.38;nan;101698.69;5044372;28;20038;-38
2023/06/07 03:34:58;;;;;;;7.70;4.63;;;;;;;19.32;nan;101699.16;5052315;28;20036;-38
2023/06/07 03:37:26;;;;;;;12.52;5.65;;;;;;;19.31;nan;101697.47;5038424;28;20040;-39
2023/06/07 03:39:52;;;;;;;7.22;4.68;;;;;;;19.28;nan;101703.91;5056105;28;20227;-38
2023/06/07 03:42:17;;;;;;;12.82;5.22;;;;;;;19.38;nan;101704.00;5035607;28;21159;-39
2023/06/07 03:44:43;;;;;;;9.55;4.80;;;;;;;19.34;nan;101702.56;5049472;28;20028;-39
2023/06/07 03:47:09;;;;;;;10.07;5.55;;;;;;;19.39;nan;101697.72;5032859;28;20059;-38
2023/06/07 03:49:34;;;;;;;9.00;4.95;;;;;;;19.42;nan;101699.28;5052103;28;20036;-39
2023/06/07 03:52:00;;;;;;;11.20;5.15;;;;;;;19.45;nan;101697.19;5051781;28;20040;-39
2023/06/07 03:54:26;;;;;;;10.52;6.05;;;;;;;19.47;nan;101703.25;5052612;28;20035;-39
2023/06/07 03:56:56;;;;;;;9.80;5.18;;;;;;;19.50;nan;101694.19;5049226;28;20041;-39
2023/06/07 03:59:24;;;;;;;11.43;5.22;;;;;;;19.57;nan;101698.03;5050607;28;20040;-39
2023/06/07 04:01:49;;;;;;;12.15;6.18;;;;;;;19.68;nan;101702.50;5051907;28;20024;-39
2023/06/07 04:04:15;;;;;;;8.70;4.47;;;;;;;19.75;nan;101700.19;5069340;28;20031;-39
2023/06/07 04:06:41;;;;;;;8.77;4.82;;;;;;;19.82;nan;101705.88;5048259;28;20028;-39
2023/06/07 04:09:08;;;;;;;8.95;4.43;;;;;;;19.86;nan;101700.13;5058252;28;20082;-38
2023/06/07 04:11:33;;;;;;;7.05;4.97;;;;;;;19.84;nan;101695.91;5038349;28;20043;-38
2023/06/07 04:14:01;;;;;;;7.05;3.90;;;;;;;19.89;nan;101691.09;5051858;28;20039;-38
2023/06/07 04:16:27;;;;;;;7.88;4.70;;;;;;;19.94;nan;101694.19;5044505;28;20098;-38
2023/06/07 04:18:53;;;;;;;8.75;4.68;;;;;;;19.96;nan;101697.59;5038365;28;20115;-39
2023/06/07 04:21:18;;;;;;;8.13;4.65;;;;;;;20.02;nan;101696.22;5055248;28;20031;-38
2023/06/07 04:23:44;;;;;;;6.97;4.05;;;;;;;20.06;nan;101692.34;5051518;28;20031;-37
2023/06/07 04:26:09;;;;;;;9.10;4.07;;;;;;;20.08;nan;101693.91;5068725;28;20082;-38
2023/06/07 04:28:40;;;;;;;12.77;5.43;;;;;;;20.12;nan;101690.97;5051987;28;20028;-39
2023/06/07 04:31:08;;;;;;;12.20;5.32;;;;;;;20.12;nan;101696.31;5066495;28;20035;-38
2023/06/07 04:33:35;;;;;;;13.02;5.97;;;;;;;20.15;nan;101701.41;5057286;28;20028;-38
2023/06/07 04:36:02;;;;;;;11.70;5.93;;;;;;;20.20;nan;101705.41;5050445;28;20036;-38
2023/06/07 04:38:29;;;;;;;11.25;4.18;;;;;;;20.25;nan;101700.53;5057636;28;20028;-38
2023/06/07 04:40:55;;;;;;;7.55;4.45;;;;;;;20.29;nan;101698.44;5055679;28;20432;-38
2023/06/07 04:43:23;;;;;;;9.63;4.40;;;;;;;20.36;nan;101698.75;5071141;28;20763;-38
2023/06/07 04:45:55;;;;;;;10.13;4.10;;;;;;;20.41;nan;101702.72;5071814;28;20122;-38
2023/06/07 04:48:22;;;;;;;9.77;4.38;;;;;;;20.48;nan;101697.72;5066238;28;20036;-38
2023/06/07 04:50:49;;;;;;;11.40;4.43;;;;;;;20.52;nan;101692.94;5069312;28;20103;-38
2023/06/07 04:53:19;;;;;;;14.68;4.28;;;;;;;20.55;nan;101698.03;5052477;28;20032;-38
2023/06/07 04:55:47;;;;;;;8.55;4.03;;;;;;;20.63;nan;101700.91;5050864;28;20036;-38
2023/06/07 04:58:16;;;;;;;9.07;4.53;;;;;;;20.64;nan;101699.94;5066777;28;20024;-39
2023/06/07 05:00:42;;;;;;;9.25;4.65;;;;;;;20.62;nan;101703.72;5053722;28;20044;-38
2023/06/07 05:03:08;;;;;;;9.98;4.80;;;;;;;20.60;nan;101697.63;5044256;28;20035;-39
2023/06/07 05:05:37;;;;;;;12.23;4.78;;;;;;;20.64;nan;101704.44;5070314;28;20032;-39
2023/06/07 05:08:05;;;;;;;9.27;4.63;;;;;;;20.69;nan;101708.41;5045090;28;20040;-38
2023/06/07 05:10:30;;;;;;;10.32;4.40;;;;;;;20.75;nan;101708.84;5050889;28;20463;-38
2023/06/07 05:12:59;;;;;;;10.05;4.00;;;;;;;20.80;nan;101706.66;5066046;28;20035;-39
2023/06/07 05:15:25;;;;;;;14.85;5.43;;;;;;;20.83;nan;101711.75;5051662;28;20693;-38
2023/06/07 05:17:51;;;;;;;11.07;5.10;;;;;;;20.87;nan;101718.53;5038999;28;20024;-40
2023/06/07 05:20:17;;;;;;;12.13;4.50;;;;;;;20.90;nan;101723.63;5050167;28;20028;-38
2023/06/07 05:22:43;;;;;;;12.82;5.05;;;;;;;20.93;nan;101718.00;5053326;28;20036;-38
2023/06/07 05:25:11;;;;;;;8.75;4.88;;;;;;;20.97;nan;101722.09;5066761;28;20039;-39
2023/06/07 05:27:40;;;;;;;16.17;4.57;;;;;;;21.00;nan;101718.31;5050810;28;20024;-39
2023/06/07 05:30:07;;;;;;;9.35;4.82;;;;;;;21.04;nan;101721.56;5055014;28;20042;-39
2023/06/07 05:32:33;;;;;;;13.15;6.32;;;;;;;21.08;nan;101723.84;5074516;28;20136;-38
2023/06/07 05:34:59;;;;;;;8.40;5.22;;;;;;;21.11;nan;101720.03;5075355;28;20034;-38
2023/06/07 05:37:25;;;;;;;13.02;5.65;;;;;;;21.16;nan;101717.81;5079745;28;20028;-39
2023/06/07 05:39:52;;;;;;;10.13;5.35;;;;;;;21.16;nan;101724.03;5051815;28;20036;-39
2023/06/07 05:42:17;;;;;;;8.65;4.35;;;;;;;21.21;nan;101720.06;5065770;28;20038;-39
2023/06/07 05:44:50;;;;;;;9.85;3.85;;;;;;;21.25;nan;101722.34;5070022;28;20024;-39
2023/06/07 05:47:16;;;;;;;11.48;3.92;;;;;;;21.28;nan;101722.09;5054432;28;20062;-39
2023/06/07 05:49:43;;;;;;;8.15;3.92;;;;;;;21.30;nan;101720.13;5075009;28;20069;-38
2023/06/07 05:52:09;;;;;;;22.85;10.35;;;;;;;21.30;nan;101720.13;5077146;28;20106;-38
2023/06/07 05:54:39;;;;;;;10.50;4.15;;;;;;;21.38;nan;101726.63;5039069;28;20118;-38
2023/06/07 05:57:05;;;;;;;16.40;3.83;;;;;;;21.42;nan;101712.84;5059772;28;20135;-39
2023/06/07 05:59:31;;;;;;;8.45;4.03;;;;;;;21.46;nan;101718.75;5049164;28;20039;-38
2023/06/07 06:01:57;;;;;;;10.05;3.72;;;;;;;21.53;nan;101719.06;5032095;28;20043;-38
2023/06/07 06:04:24;;;;;;;6.93;3.53;;;;;;;21.59;nan;101719.34;5062033;28;20027;-39
2023/06/07 06:06:50;;;;;;;8.85;3.42;;;;;;;21.65;nan;101722.50;5060613;28;20105;-38
2023/06/07 06:09:15;;;;;;;9.18;2.90;;;;;;;21.70;nan;101720.28;5033099;28;20035;-38
2023/06/07 06:14:09;;;;;;;10.50;3.58;;;;;;;21.76;nan;101727.75;5060683;28;20036;-36
2023/06/07 06:16:34;;;;;;;7.93;2.78;;;;;;;21.78;nan;101725.78;5059931;28;20040;-36
2023/06/07 06:19:00;;;;;;;7.78;3.17;;;;;;;21.83;nan;101725.34;5061276;28;20037;-37
2023/06/07 06:21:25;;;;;;;5.10;3.05;;;;;;;21.86;nan;101731.28;5051361;28;20494;-35
2023/06/07 06:23:51;;;;;;;6.90;2.92;;;;;;;21.90;nan;101727.34;5033864;28;20030;-36
2023/06/07 06:26:16;;;;;;;6.07;2.78;;;;;;;21.95;nan;101736.78;5039302;28;20025;-35
2023/06/07 06:28:41;;;;;;;4.60;2.85;;;;;;;21.99;nan;101730.19;5040061;28;20084;-35
2023/06/07 06:31:07;;;;;;;7.05;2.72;;;;;;;22.04;nan;101738.63;5031768;28;20022;-36
2023/06/07 06:33:33;;;;;;;5.28;2.65;;;;;;;22.06;nan;101728.63;5040681;28;20102;-36
2023/06/07 06:35:59;;;;;;;5.75;2.63;;;;;;;22.10;nan;101731.84;5041954;28;20525;-36
2023/06/07 06:38:25;;;;;;;11.02;2.80;;;;;;;22.10;nan;101732.72;5041863;28;20454;-35
2023/06/07 06:40:51;;;;;;;8.90;3.00;;;;;;;22.14;nan;101731.47;5037255;28;20029;-35
2023/06/07 06:43:16;;;;;;;8.38;3.10;;;;;;;22.19;nan;101736.41;5040552;28;20128;-36
2023/06/07 06:45:42;;;;;;;4.72;2.50;;;;;;;22.23;nan;101733.28;5038388;28;20140;-36
2023/06/07 06:48:07;;;;;;;9.52;3.10;;;;;;;22.30;nan;101735.41;5044441;28;20115;-36
2023/06/07 06:50:33;;;;;;;7.53;3.75;;;;;;;22.33;nan;101735.09;5041564;28;20029;-37
2023/06/07 06:52:58;;;;;;;6.22;2.85;;;;;;;22.36;nan;101737.50;5045940;28;20040;-37
2023/06/07 06:55:24;;;;;;;7.55;2.65;;;;;;;22.39;nan;101734.53;5040631;28;20494;-36
2023/06/07 06:57:50;;;;;;;4.93;2.70;;;;;;;22.43;nan;101737.81;5037686;28;20480;-36
2023/06/07 07:00:16;;;;;;;7.97;2.67;;;;;;;22.46;nan;101737.53;5049720;28;20044;-36
2023/06/07 07:02:41;;;;;;;7.97;3.08;;;;;;;22.51;nan;101741.47;5048432;28;20025;-36
2023/06/07 07:05:09;;;;;;;6.40;2.80;;;;;;;22.54;nan;101732.28;5049284;28;20040;-37
2023/06/07 07:07:35;;;;;;;8.18;3.40;;;;;;;22.58;nan;101739.06;5049775;28;20025;-36
2023/06/07 07:10:01;;;;;;;6.85;2.70;;;;;;;22.62;nan;101736.94;5043742;28;20033;-37
2023/06/07 07:12:26;;;;;;;8.32;2.88;;;;;;;22.64;nan;101737.63;5035092;28;20505;-37
2023/06/07 07:14:52;;;;;;;7.40;2.60;;;;;;;22.69;nan;101738.06;5050047;28;20036;-36
2023/06/07 07:17:20;;;;;;;7.15;2.72;;;;;;;22.74;nan;101741.16;5045817;28;20042;-37
2023/06/07 07:19:45;;;;;;;9.65;3.03;;;;;;;22.77;nan;101740.84;5043497;28;20108;-37
2023/06/07 07:22:11;;;;;;;6.78;2.90;;;;;;;22.81;nan;101730.69;5039958;28;20112;-36
2023/06/07 07:24:36;;;;;;;10.07;3.13;;;;;;;22.84;nan;101739.28;5041404;28;20040;-36
2023/06/07 07:27:02;;;;;;;5.93;2.83;;;;;;;22.84;nan;101747.34;5035271;28;20514;-36
2023/06/07 07:29:27;;;;;;;7.15;2.47;;;;;;;22.85;nan;101732.06;5044520;28;20495;-37
2023/06/07 07:31:53;;;;;;;7.70;2.53;;;;;;;22.89;nan;101738.03;5046962;28;20045;-36
2023/06/07 07:34:18;;;;;;;8.07;3.05;;;;;;;22.95;nan;101737.41;5046332;28;20060;-37
2023/06/07 07:36:44;;;;;;;5.20;2.53;;;;;;;23.00;nan;101740.53;5037563;28;20029;-37
2023/06/07 07:39:17;;;;;;;5.68;2.78;;;;;;;23.03;nan;101737.56;5045676;28;20037;-36
2023/06/07 07:41:42;;;;;;;6.43;2.72;;;;;;;23.06;nan;101745.31;5036311;28;21258;-36
2023/06/07 07:44:08;;;;;;;4.88;2.65;;;;;;;23.09;nan;101741.47;5039250;28;20052;-36
2023/06/07 07:46:33;;;;;;;5.22;2.45;;;;;;;23.13;nan;101741.03;5044296;28;20021;-37
2023/06/07 07:48:58;;;;;;;6.22;2.45;;;;;;;23.16;nan;101739.06;5046522;28;20069;-37
2023/06/07 07:51:24;;;;;;;5.53;2.70;;;;;;;23.23;nan;101745.53;5046281;28;20033;-36
2023/06/07 07:53:52;;;;;;;7.65;2.92;;;;;;;23.26;nan;101740.75;5041822;28;20037;-36
2023/06/07 07:56:19;;;;;;;5.18;3.25;;;;;;;23.32;nan;101743.81;5040003;28;20045;-37
2023/06/07 07:58:45;;;;;;;8.07;2.88;;;;;;;23.34;nan;101737.31;5041441;28;20028;-37
2023/06/07 08:01:11;;;;;;;5.55;2.80;;;;;;;23.37;nan;101734.31;5034553;28;20037;-37
2023/06/07 08:03:37;;;;;;;5.07;2.40;;;;;;;23.42;nan;101732.03;5042889;28;20036;-37
2023/06/07 08:06:03;;;;;;;4.85;2.20;;;;;;;23.48;nan;101737.81;5045419;28;20036;-37
2023/06/07 08:08:28;;;;;;;9.30;2.95;;;;;;;23.46;nan;101726.38;5040681;28;20033;-36
2023/06/07 08:10:54;;;;;;;6.72;2.85;;;;;;;23.58;nan;101730.53;5040000;28;20095;-37
2023/06/07 08:13:19;;;;;;;8.65;2.45;;;;;;;23.63;nan;101730.06;5040891;28;20422;-37
2023/06/07 08:15:46;;;;;;;7.30;2.95;;;;;;;23.68;nan;101725.94;5044712;28;20045;-36
2023/06/07 08:18:12;;;;;;;6.78;3.00;;;;;;;23.71;nan;101728.31;5042156;28;20028;-38
2023/06/07 08:20:38;;;;;;;3.80;2.28;;;;;;;23.67;nan;101724.25;5039173;28;20041;-37
2023/06/07 08:23:03;;;;;;;5.97;2.60;;;;;;;23.77;nan;101726.88;5036499;28;20382;-36
2023/06/07 08:25:29;;;;;;;4.47;2.70;;;;;;;23.83;nan;101720.91;5040450;28;20036;-36
2023/06/07 08:27:54;;;;;;;6.97;2.50;;;;;;;23.87;nan;101733.03;5038252;28;20120;-37
2023/06/07 08:30:20;;;;;;;4.28;2.38;;;;;;;23.92;nan;101737.09;5042114;28;20538;-37
2023/06/07 08:32:45;;;;;;;5.22;2.17;;;;;;;23.96;nan;101728.63;5041961;28;20036;-38
2023/06/07 08:35:11;;;;;;;4.82;2.90;;;;;;;24.02;nan;101728.00;5046210;28;20040;-37
2023/06/07 08:37:39;;;;;;;6.70;2.70;;;;;;;24.10;nan;101731.78;5046164;28;20048;-37
2023/06/07 08:40:06;;;;;;;5.50;2.40;;;;;;;24.19;nan;101730.84;5043704;28;20028;-38
2023/06/07 08:42:32;;;;;;;5.00;2.75;;;;;;;24.28;nan;101729.88;5038561;28;20021;-37
2023/06/07 08:44:58;;;;;;;6.07;2.97;;;;;;;24.34;nan;101729.28;5027072;28;20032;-37
2023/06/07 08:47:23;;;;;;;6.75;2.67;;;;;;;24.41;nan;101732.19;5041265;28;20032;-35
2023/06/07 08:49:55;;;;;;;8.65;2.78;;;;;;;24.50;nan;101739.31;5040189;28;20023;-37
2023/06/07 08:52:21;;;;;;;;;;;;;;;24.56;nan;101732.50;5043621;28;20064;-37
2023/06/07 08:54:48;;;;;;;6.40;2.28;;;;;;;24.49;nan;101728.72;5042410;28;19916;-36
2023/06/07 08:57:17;;;;;;;7.10;3.22;;;;;;;24.66;nan;101732.34;5044769;28;20081;-37
2023/06/07 08:59:45;;;;;;;9.52;6.68;;;;;;;24.73;nan;101725.38;5044344;28;20671;-36
2023/06/07 09:02:12;;;;;;;12.48;5.60;;;;;;;24.77;nan;101732.16;5042614;28;20032;-36
2023/06/07 09:04:39;;;;;;;9.95;3.33;;;;;;;24.84;nan;101740.44;5043642;28;20090;-36
2023/06/07 09:07:06;;;;;;;4.88;2.30;;;;;;;24.95;nan;101732.06;5045222;28;20025;-36
2023/06/07 09:09:31;;;;;;;5.68;2.33;;;;;;;25.00;nan;101722.69;5045269;28;20048;-37
2023/06/07 09:11:57;;;;;;;5.97;2.60;;;;;;;25.03;nan;101722.38;5042485;28;20041;-36
2023/06/07 09:14:22;;;;;;;9.73;2.50;;;;;;;25.09;nan;101721.72;5040698;28;20259;-36
2023/06/07 09:16:53;;;;;;;6.50;3.08;;;;;;;25.13;nan;101719.53;5044197;28;20036;-37
2023/06/07 09:19:31;;;;;;;10.07;2.90;;;;;;;25.09;nan;101721.72;5039608;28;20688;-36
2023/06/07 09:21:57;;;;;;;13.32;3.38;;;;;;;25.24;nan;101719.28;5040897;28;20484;-36
2023/06/07 09:24:27;;;;;;;6.00;3.03;;;;;;;25.29;nan;101724.16;5041458;28;20029;-37
2023/06/07 09:26:53;;;;;;;9.25;2.78;;;;;;;25.30;nan;101718.59;5043457;28;20029;-36
2023/06/07 09:29:21;;;;;;;5.22;2.70;;;;;;;25.35;nan;101718.09;5041231;28;20126;-36
2023/06/07 09:31:47;;;;;;;12.02;4.85;;;;;;;25.35;nan;101721.66;5046620;28;20060;-36
2023/06/07 09:34:18;;;;;;;5.13;3.33;;;;;;;25.40;nan;101716.63;5040877;28;20084;-36
2023/06/07 09:36:53;;;;;;;;;;;;;;;25.42;nan;101713.81;5039784;28;20025;-36
2023/06/07 09:39:23;;;;;;;7.13;2.92;;;;;;;25.44;nan;101721.72;5041465;28;19928;-36
2023/06/07 09:41:54;;;;;;;7.78;2.72;;;;;;;25.45;nan;101720.69;5046005;28;20387;-36
2023/06/07 09:44:26;;;;;;;5.20;2.70;;;;;;;25.44;nan;101725.25;5041014;28;20442;-37
2023/06/07 09:46:52;;;;;;;6.60;3.00;;;;;;;25.49;nan;101720.19;5039792;28;20028;-36
2023/06/07 09:49:34;;;;;;;8.20;2.90;;;;;;;25.52;nan;101719.06;5043733;28;20387;-36
2023/06/07 09:52:03;;;;;;;6.50;2.80;;;;;;;25.51;nan;101715.50;5044820;28;20044;-36
2023/06/07 09:54:39;;;;;;;6.13;2.75;;;;;;;25.52;nan;101719.88;5035550;28;20043;-36
2023/06/07 09:57:07;;;;;;;14.98;9.60;;;;;;;25.52;nan;101722.56;5040672;28;20119;-36
2023/06/07 09:59:33;;;;;;;6.88;3.78;;;;;;;25.54;nan;101725.13;5043011;28;20025;-37
2023/06/07 10:01:58;;;;;;;5.15;3.03;;;;;;;25.53;nan;101708.09;5041332;28;20033;-37
2023/06/07 10:04:24;;;;;;;12.40;3.65;;;;;;;25.52;nan;101698.31;5034278;28;20037;-37
2023/06/07 10:06:54;;;;;;;8.00;2.90;;;;;;;25.52;nan;101714.50;5041103;28;20025;-37
2023/06/07 10:09:21;;;;;;;6.65;2.67;;;;;;;25.54;nan;101709.78;5042502;28;20048;-36
2023/06/07 10:11:52;;;;;;;5.05;1.52;;;;;;;25.55;nan;101711.47;5044212;28;20475;-36
2023/06/07 10:14:20;;;;;;;4.15;2.42;;;;;;;25.62;nan;101702.75;5045205;28;20041;-37
2023/06/07 10:16:57;;;;;;;9.50;3.33;;;;;;;25.72;nan;101695.34;5042746;28;20025;-37
2023/06/07 10:19:36;;;;;;;7.18;3.25;;;;;;;25.78;nan;101700.09;5043030;28;20441;-37
2023/06/07 10:22:04;;;;;;;9.73;5.97;;;;;;;25.82;nan;101701.41;5042679;28;20499;-36
2023/06/07 10:24:39;;;;;;;8.65;4.03;;;;;;;25.87;nan;101703.59;5038559;28;20025;-37
2023/06/07 10:27:16;;;;;;;9.60;2.70;;;;;;;25.92;nan;101698.56;5042414;28;20033;-37
2023/06/07 10:29:50;;;;;;;3.90;2.15;;;;;;;25.97;nan;101695.34;5040954;28;20094;-37
2023/06/07 10:32:26;;;;;;;10.35;2.63;;;;;;;25.99;nan;101696.03;5041240;28;20033;-37
2023/06/07 10:34:54;;;;;;;10.00;5.05;;;;;;;26.00;nan;101692.34;5040093;28;20476;-37
2023/06/07 10:37:20;;;;;;;12.32;5.10;;;;;;;26.02;nan;101690.31;5040748;28;20442;-37
2023/06/07 10:39:46;;;;;;;5.70;3.20;;;;;;;26.06;nan;101691.69;5037635;28;20028;-36
2023/06/07 10:42:13;;;;;;;9.15;2.65;;;;;;;26.10;nan;101681.38;5026575;28;20029;-36
2023/06/07 10:44:39;;;;;;;5.78;3.00;;;;;;;26.15;nan;101696.06;5039445;28;20032;-36
2023/06/07 10:47:23;;;;;;;7.15;2.90;;;;;;;26.21;nan;101689.16;5041496;28;20052;-37
2023/06/07 10:49:51;;;;;;;5.63;3.33;;;;;;;26.25;nan;101689.66;5041153;28;20074;-37
2023/06/07 10:52:19;;;;;;;8.80;3.45;;;;;;;26.28;nan;101697.41;5046400;28;20120;-36
2023/06/07 10:54:45;;;;;;;5.57;3.03;;;;;;;26.33;nan;101689.66;5035017;28;20603;-36
2023/06/07 10:57:11;;;;;;;5.75;3.03;;;;;;;26.21;nan;101691.03;5035525;28;20037;-37
2023/06/07 10:59:38;;;;;;;7.97;3.30;;;;;;;26.32;nan;101685.28;5020113;28;20033;-37
2023/06/07 11:02:33;;;;;;;10.52;4.90;;;;;;;26.35;nan;101681.38;5040304;28;20122;-36
2023/06/07 11:05:00;;;;;;;10.15;3.92;;;;;;;26.40;nan;101679.88;5024855;28;20048;-37
2023/06/07 11:07:32;;;;;;;6.45;3.35;;;;;;;26.48;nan;101685.25;5036194;28;20403;-37
2023/06/07 11:10:03;;;;;;;8.07;2.83;;;;;;;26.51;nan;101678.66;5036622;28;20116;-36
2023/06/07 11:12:35;;;;;;;6.88;2.75;;;;;;;26.51;nan;101683.25;5042964;28;20064;-37
2023/06/07 11:15:35;;;;;;;12.05;5.38;;;;;;;26.58;nan;101685.09;5041960;28;20025;-36
2023/06/07 11:18:08;;;;;;;6.97;3.25;;;;;;;26.65;nan;101678.97;5033457;28;20499;-37
2023/06/07 11:20:41;;;;;;;4.65;2.70;;;;;;;26.65;nan;101678.97;5037715;28;20952;-37
2023/06/07 11:23:26;;;;;;;5.00;3.00;;;;;;;26.72;nan;101679.97;5028680;28;20518;-37
2023/06/07 11:26:12;;;;;;;6.30;3.15;;;;;;;26.81;nan;101686.22;5039616;28;20059;-37
2023/06/07 11:28:40;;;;;;;4.07;2.60;;;;;;;26.86;nan;101675.72;5039102;28;20502;-37
2023/06/07 11:31:10;;;;;;;9.02;2.75;;;;;;;26.93;nan;101676.72;5042004;28;20149;-37
2023/06/07 11:33:36;;;;;;;10.13;4.35;;;;;;;26.96;nan;101680.94;5043951;28;20559;-37
2023/06/07 11:36:04;;;;;;;10.70;4.88;;;;;;;27.00;nan;101675.00;5036189;28;20167;-37
2023/06/07 11:38:33;;;;;;;11.75;6.97;;;;;;;27.03;nan;101671.97;5037277;28;20490;-37
2023/06/07 11:40:59;;;;;;;6.93;3.40;;;;;;;27.06;nan;101665.38;5037963;28;20495;-37
2023/06/07 11:43:27;;;;;;;11.55;3.55;;;;;;;27.05;nan;101675.31;5039729;28;20112;-37